Pays
Station

 

Conditions  météo  pour  Tyler, Tyler Pounds Field  -  Etats-Unis    Etats-Unis

  
31 °C
    
 
 

METAR pour Tyler, Tyler Pounds Field :

KTYR 231653Z 21004KT 10SM FEW034 SCT045 31/21 A2996 RMK AO2 SLP136 T03110206

 

Voici le bulletin pour Tyler, Tyler Pounds Field - Etats-Unis.
 
Le bulletin a été fait il y a 51 minutes, à 16:53 UTC .
Le vent soufflait à la vitesse de 2.1 mètres par seconde de Sud/Sud-ouest (210°).
 
La température était de 31 °C, avec un point de rosée à 21 °C.
La température ressentie était de 34 °C.
 
La pression atmosphérique était de 1015 hPa.
L'humidité relative était de 55.4%.
 
Il y avait 1 à 2/8ème de nébulosité à une hauteur de 1036 mètres et 3 à 4/8ème de nébulosité à une hauteur de 1372 mètres.
 
La visibilité globale était de 16.1 kilomètres.
 

 
 
 

Pays :   A   B   C   D   E   F   G   H   I   J   K   L   M   N   O   P   Q   R   S   T   U   V   W   Y   Z

 

Partenaires :  Info Météo avec Met'info
Météo Marine avec MeteoMarine.net
Infos Site  |  Infos Légales  |  Crédits  |  Confidentialité
Contactez-nous  |  Ajouter aux favoris
© 2013-2019 METAR - Tous droits réservés